PWSweather.com
Personal Weather Stations
Station Observations
BALTRELAY
Relay, Baltimore, MD 21227

RelayBaltimore, MD 21227

Lat: 39.24588, Lon: -76.719772

Elevation: 221

Station Type: Davis Vantage Pro2 (6153)

http://www.relayweather.com

Latest ConditionsUpdated 8:45:00 AM GMT Sunday, Sep 25, 2016
Currently Today's Max Today's Min Today's Average
Temperature 55.1°F12.8°C 65.0°F18.3°C 55.1°F12.8°C 59.9°F15.5°C
Dew Point 48.0°F8.9°C 59.6°F15.3°C 48.0°F8.9°C 55.3°F12.9°C
Winds Calm Calm 5.8 mph ESE9.3 kmh ESE - 0.8 mph 1.3 kmh
Wind Gusts -- 9.2 mph14.8 kmh - -
Humidity 77% 91% 77% 85%
Pressure 30.17 in1021.7 mb 30.17 in1021.7 mb 30.11 in1019.6 mb -
Hour Temp Dew Point Humidity Winds Wind Gusts Pressure Precip Precip Rate Daily Precip Total
08:45 AM 55.1°F12.8°C 48.0°F8.9°C 77% Calm Calm -- 30.17 in1021.7 mb - 0.00 in0.0 mm 0.00 in0.0 mm
08:40 AM 55.5°F13.1°C 48.4°F9.1°C 77% Calm Calm -- 30.17 in1021.7 mb - 0.00 in0.0 mm 0.00 in0.0 mm
08:30 AM 55.5°F13.1°C 48.4°F9.1°C 77% Calm Calm -- 30.17 in1021.7 mb - 0.00 in0.0 mm 0.00 in0.0 mm
08:20 AM 55.8°F13.2°C 48.7°F9.3°C 77% Calm Calm -- 30.17 in1021.7 mb - 0.00 in0.0 mm 0.00 in0.0 mm
08:15 AM 56.0°F13.3°C 48.9°F9.4°C 77% 1.2 mph NNW1.9 kmh NNW 2.3 mph3.7 kmh 30.17 in1021.7 mb - 0.00 in0.0 mm 0.00 in0.0 mm
08:10 AM 56.2°F13.4°C 49.1°F9.5°C 77% Calm Calm -- 30.16 in1021.3 mb - 0.00 in0.0 mm 0.00 in0.0 mm
08:00 AM 56.3°F13.5°C 49.2°F9.6°C 77% Calm Calm 1.2 mph1.9 kmh 30.16 in1021.3 mb - 0.00 in0.0 mm 0.00 in0.0 mm
07:50 AM 56.4°F13.6°C 49.6°F9.8°C 78% 2.3 mph E3.7 kmh E 4.6 mph7.4 kmh 30.16 in1021.3 mb - 0.00 in0.0 mm 0.00 in0.0 mm
07:45 AM 56.6°F13.7°C 49.8°F9.9°C 78% Calm Calm 4.6 mph7.4 kmh 30.16 in1021.3 mb - 0.00 in0.0 mm 0.00 in0.0 mm
07:40 AM 56.6°F13.7°C 49.9°F9.9°C 78% 1.2 mph NNW1.9 kmh NNW 3.5 mph5.6 kmh 30.17 in1021.7 mb - 0.00 in0.0 mm 0.00 in0.0 mm
07:30 AM 56.8°F13.8°C 50.4°F10.2°C 79% 3.5 mph NW5.6 kmh NW 4.6 mph7.4 kmh 30.16 in1021.3 mb - 0.00 in0.0 mm 0.00 in0.0 mm
07:20 AM 57.0°F13.9°C 50.9°F10.5°C 80% 4.6 mph NNW7.4 kmh NNW 6.9 mph11.1 kmh 30.16 in1021.3 mb - 0.00 in0.0 mm 0.00 in0.0 mm
07:15 AM 57.2°F14.0°C 51.1°F10.6°C 80% 3.5 mph NNW5.6 kmh NNW 5.8 mph9.3 kmh 30.16 in1021.3 mb - 0.00 in0.0 mm 0.00 in0.0 mm
07:10 AM 57.3°F14.1°C 51.2°F10.7°C 80% 2.3 mph ENE3.7 kmh ENE 4.6 mph7.4 kmh 30.16 in1021.3 mb - 0.00 in0.0 mm 0.00 in0.0 mm
07:00 AM 57.6°F14.2°C 51.5°F10.8°C 80% 5.8 mph ESE9.3 kmh ESE 9.2 mph14.8 kmh 30.16 in1021.3 mb - 0.00 in0.0 mm 0.00 in0.0 mm
06:50 AM 57.8°F14.3°C 52.0°F11.1°C 81% 4.6 mph ESE7.4 kmh ESE 6.9 mph11.1 kmh 30.16 in1021.3 mb - 0.00 in0.0 mm 0.00 in0.0 mm
06:45 AM 58.0°F14.4°C 52.2°F11.2°C 81% 3.5 mph NNE5.6 kmh NNE 4.6 mph7.4 kmh 30.16 in1021.3 mb - 0.00 in0.0 mm 0.00 in0.0 mm
06:40 AM 58.1°F14.5°C 51.9°F11.1°C 80% 3.5 mph NW5.6 kmh NW 5.8 mph9.3 kmh 30.16 in1021.3 mb - 0.00 in0.0 mm 0.00 in0.0 mm
06:30 AM 58.3°F14.6°C 52.2°F11.2°C 80% 2.3 mph N3.7 kmh N 4.6 mph7.4 kmh 30.16 in1021.3 mb - 0.00 in0.0 mm 0.00 in0.0 mm
06:20 AM 58.4°F14.7°C 52.2°F11.2°C 80% 3.5 mph NW5.6 kmh NW 4.6 mph7.4 kmh 30.16 in1021.3 mb - 0.00 in0.0 mm 0.00 in0.0 mm
06:15 AM 58.3°F14.6°C 52.2°F11.2°C 80% 2.3 mph N3.7 kmh N 4.6 mph7.4 kmh 30.16 in1021.3 mb - 0.00 in0.0 mm 0.00 in0.0 mm
06:10 AM 58.2°F14.6°C 52.4°F11.3°C 81% 2.3 mph N3.7 kmh N 3.5 mph5.6 kmh 30.16 in1021.3 mb - 0.00 in0.0 mm 0.00 in0.0 mm
06:00 AM 58.3°F14.6°C 52.8°F11.6°C 82% Calm Calm 1.2 mph1.9 kmh 30.16 in1021.3 mb - 0.00 in0.0 mm 0.00 in0.0 mm
05:50 AM 58.4°F14.7°C 53.6°F12.0°C 84% Calm Calm 1.2 mph1.9 kmh 30.16 in1021.3 mb - 0.00 in0.0 mm 0.00 in0.0 mm
05:45 AM 58.3°F14.6°C 53.8°F12.1°C 85% 1.2 mph NW1.9 kmh NW 2.3 mph3.7 kmh 30.16 in1021.3 mb - 0.00 in0.0 mm 0.00 in0.0 mm
05:40 AM 58.4°F14.7°C 54.2°F12.3°C 86% Calm Calm 4.6 mph7.4 kmh 30.16 in1021.3 mb - 0.00 in0.0 mm 0.00 in0.0 mm
05:30 AM 58.6°F14.8°C 54.7°F12.6°C 87% 1.2 mph NW1.9 kmh NW 4.6 mph7.4 kmh 30.15 in1021.0 mb - 0.00 in0.0 mm 0.00 in0.0 mm
05:20 AM 58.9°F14.9°C 55.3°F12.9°C 88% 1.2 mph NW1.9 kmh NW 1.2 mph1.9 kmh 30.15 in1021.0 mb - 0.00 in0.0 mm 0.00 in0.0 mm
05:15 AM 59.0°F15.0°C 55.4°F13.0°C 88% 1.2 mph NW1.9 kmh NW 2.3 mph3.7 kmh 30.15 in1021.0 mb - 0.00 in0.0 mm 0.00 in0.0 mm
05:10 AM 59.1°F15.1°C 55.8°F13.2°C 89% Calm Calm -- 30.14 in1020.7 mb - 0.00 in0.0 mm 0.00 in0.0 mm
05:00 AM 59.4°F15.2°C 56.4°F13.6°C 90% Calm Calm 1.2 mph1.9 kmh 30.15 in1021.0 mb - 0.00 in0.0 mm 0.00 in0.0 mm
04:50 AM 59.6°F15.3°C 56.6°F13.7°C 90% 2.3 mph NW3.7 kmh NW 4.6 mph7.4 kmh 30.15 in1021.0 mb - 0.00 in0.0 mm 0.00 in0.0 mm
04:45 AM 59.8°F15.4°C 57.1°F13.9°C 91% Calm Calm -- 30.15 in1021.0 mb - 0.00 in0.0 mm 0.00 in0.0 mm
04:40 AM 59.9°F15.5°C 57.2°F14.0°C 91% 1.2 mph NW1.9 kmh NW 3.5 mph5.6 kmh 30.15 in1021.0 mb - 0.00 in0.0 mm 0.00 in0.0 mm
04:30 AM 59.9°F15.5°C 57.2°F14.0°C 91% Calm Calm -- 30.15 in1021.0 mb - 0.00 in0.0 mm 0.00 in0.0 mm
04:20 AM 60.0°F15.6°C 57.3°F14.1°C 91% Calm Calm -- 30.15 in1021.0 mb - 0.00 in0.0 mm 0.00 in0.0 mm
04:15 AM 60.0°F15.6°C 57.3°F14.1°C 91% Calm Calm -- 30.15 in1021.0 mb - 0.00 in0.0 mm 0.00 in0.0 mm
04:10 AM 60.0°F15.6°C 57.4°F14.1°C 91% Calm Calm -- 30.15 in1021.0 mb - 0.00 in0.0 mm 0.00 in0.0 mm
04:00 AM 60.1°F15.6°C 57.4°F14.1°C 91% Calm Calm -- 30.15 in1021.0 mb - 0.00 in0.0 mm 0.00 in0.0 mm
03:50 AM 60.1°F15.6°C 57.5°F14.2°C 91% Calm Calm -- 30.15 in1021.0 mb - 0.00 in0.0 mm 0.00 in0.0 mm
03:45 AM 60.1°F15.6°C 57.4°F14.1°C 91% Calm Calm -- 30.15 in1021.0 mb - 0.00 in0.0 mm 0.00 in0.0 mm
03:40 AM 60.1°F15.6°C 57.4°F14.1°C 91% 2.3 mph NW3.7 kmh NW 3.5 mph5.6 kmh 30.15 in1021.0 mb - 0.00 in0.0 mm 0.00 in0.0 mm
03:30 AM 60.1°F15.6°C 57.4°F14.1°C 91% Calm Calm -- 30.15 in1021.0 mb - 0.00 in0.0 mm 0.00 in0.0 mm
03:20 AM 60.1°F15.6°C 57.4°F14.1°C 91% Calm Calm -- 30.15 in1021.0 mb - 0.00 in0.0 mm 0.00 in0.0 mm
03:15 AM 60.2°F15.7°C 57.5°F14.2°C 91% Calm Calm -- 30.15 in1021.0 mb - 0.00 in0.0 mm 0.00 in0.0 mm
03:10 AM 60.4°F15.8°C 57.4°F14.1°C 90% Calm Calm -- 30.15 in1021.0 mb - 0.00 in0.0 mm 0.00 in0.0 mm
03:00 AM 60.6°F15.9°C 57.6°F14.2°C 90% Calm Calm -- 30.15 in1021.0 mb - 0.00 in0.0 mm 0.00 in0.0 mm
02:50 AM 61.2°F16.2°C 57.9°F14.4°C 89% Calm Calm -- 30.14 in1020.7 mb - 0.00 in0.0 mm 0.00 in0.0 mm
02:45 AM 61.1°F16.2°C 57.8°F14.3°C 89% Calm Calm -- 30.14 in1020.7 mb - 0.00 in0.0 mm 0.00 in0.0 mm
02:40 AM 61.3°F16.3°C 58.0°F14.4°C 89% Calm Calm -- 30.14 in1020.7 mb - 0.00 in0.0 mm 0.00 in0.0 mm
02:30 AM 61.6°F16.4°C 58.3°F14.6°C 89% Calm Calm -- 30.14 in1020.7 mb - 0.00 in0.0 mm 0.00 in0.0 mm
02:20 AM 61.8°F16.6°C 58.2°F14.6°C 88% Calm Calm -- 30.14 in1020.7 mb - 0.00 in0.0 mm 0.00 in0.0 mm
02:15 AM 61.9°F16.6°C 58.3°F14.6°C 88% Calm Calm -- 30.14 in1020.7 mb - 0.00 in0.0 mm 0.00 in0.0 mm
02:10 AM 61.8°F16.6°C 58.2°F14.6°C 88% Calm Calm -- 30.14 in1020.7 mb - 0.00 in0.0 mm 0.00 in0.0 mm
02:00 AM 61.9°F16.6°C 58.3°F14.6°C 88% Calm Calm -- 30.14 in1020.7 mb - 0.00 in0.0 mm 0.00 in0.0 mm
01:50 AM 62.1°F16.7°C 58.5°F14.7°C 88% Calm Calm -- 30.14 in1020.7 mb - 0.00 in0.0 mm 0.00 in0.0 mm
01:45 AM 62.3°F16.8°C 58.7°F14.8°C 88% Calm Calm -- 30.13 in1020.3 mb - 0.00 in0.0 mm 0.00 in0.0 mm
01:40 AM 62.0°F16.7°C 58.4°F14.7°C 88% Calm Calm -- 30.13 in1020.3 mb - 0.00 in0.0 mm 0.00 in0.0 mm
01:30 AM 62.6°F17.0°C 58.7°F14.8°C 87% Calm Calm -- 30.13 in1020.3 mb - 0.00 in0.0 mm 0.00 in0.0 mm
01:20 AM 63.0°F17.2°C 59.0°F15.0°C 87% Calm Calm -- 30.13 in1020.3 mb - 0.00 in0.0 mm 0.00 in0.0 mm
01:15 AM 63.1°F17.3°C 59.1°F15.1°C 87% Calm Calm -- 30.12 in1020.0 mb - 0.00 in0.0 mm 0.00 in0.0 mm
01:10 AM 63.2°F17.3°C 58.9°F14.9°C 86% Calm Calm -- 30.12 in1020.0 mb - 0.00 in0.0 mm 0.00 in0.0 mm
01:00 AM 63.6°F17.6°C 59.0°F15.0°C 85% Calm Calm -- 30.12 in1020.0 mb - 0.00 in0.0 mm 0.00 in0.0 mm
12:50 AM 63.7°F17.6°C 59.1°F15.1°C 85% Calm Calm -- 30.12 in1020.0 mb - 0.00 in0.0 mm 0.00 in0.0 mm
12:45 AM 63.7°F17.6°C 59.1°F15.1°C 85% Calm Calm -- 30.12 in1020.0 mb - 0.00 in0.0 mm 0.00 in0.0 mm
12:40 AM 63.9°F17.7°C 59.3°F15.2°C 85% Calm Calm -- 30.12 in1020.0 mb - 0.00 in0.0 mm 0.00 in0.0 mm
12:30 AM 64.1°F17.8°C 59.2°F15.1°C 84% Calm Calm -- 30.11 in1019.6 mb - 0.00 in0.0 mm 0.00 in0.0 mm
12:20 AM 64.9°F18.3°C 59.6°F15.3°C 83% Calm Calm -- 30.11 in1019.6 mb - 0.00 in0.0 mm 0.00 in0.0 mm
12:15 AM 64.7°F18.2°C 59.4°F15.2°C 83% Calm Calm -- 30.11 in1019.6 mb - 0.00 in0.0 mm 0.00 in0.0 mm
12:10 AM 64.6°F18.1°C 59.3°F15.2°C 83% Calm Calm -- 30.11 in1019.6 mb - 0.00 in0.0 mm 0.00 in0.0 mm
12:00 AM 65.0°F18.3°C 59.0°F15.0°C 81% Calm Calm -- 30.11 in1019.6 mb - 0.00 in0.0 mm 0.00 in0.0 mm